Time;durP1;ratioP1;P1;durP2;ratioP2;P2;SDS_P1;SDS_P2;PMS_P1;PMS_P2;Temp;Humidity;BMP_temperature;BMP_pressure;BME280_temperature;BME280_humidity;BME280_pressure;Samples;Min_cycle;Max_cycle;Signal;HPM_P1;HPM_P2
2021/12/17 00:01:05;;;;;;;28.95;19.13;;;;;;;;;;4950381;28;20062;-71
2021/12/17 00:03:40;;;;;;;31.13;19.50;;;;;;;;;;4953201;28;20060;-70
2021/12/17 00:08:38;;;;;;;30.27;19.40;;;;;;;;;;4955460;28;20058;-70
2021/12/17 00:11:06;;;;;;;35.08;19.50;;;;;;;;;;4934229;29;20510;-71
2021/12/17 00:13:32;;;;;;;34.13;21.38;;;;;;;;;;4961476;28;20073;-70
2021/12/17 00:15:59;;;;;;;31.25;18.83;;;;;;;;;;4968214;28;20047;-70
2021/12/17 00:18:39;;;;;;;32.47;18.52;;;;;;;;;;4955552;28;20531;-70
2021/12/17 00:53:41;;;;;;;29.92;19.83;;;;;;;;;;4973632;28;20058;-70
2021/12/17 00:56:08;;;;;;;29.45;19.77;;;;;;;;;;4958095;28;20059;-71
2021/12/17 00:58:34;;;;;;;32.83;20.13;;;;;;;;;;4962980;28;20533;-69
2021/12/17 01:01:00;;;;;;;32.67;20.73;;;;;;;;;;4958137;28;20051;-71
2021/12/17 01:03:27;;;;;;;31.50;20.25;;;;;;;;;;4959962;28;20056;-71
2021/12/17 01:05:53;;;;;;;31.45;20.05;;;;;;;;;;4962217;28;20515;-71
2021/12/17 01:08:20;;;;;;;32.75;20.23;;;;;;;;;;4969331;28;20061;-70
2021/12/17 01:10:51;;;;;;;32.50;21.17;;;;;;;;;;4949807;28;20052;-71
2021/12/17 01:13:18;;;;;;;32.35;19.98;;;;;;;;;;4954235;28;20056;-71
2021/12/17 01:15:44;;;;;;;36.53;21.75;;;;;;;;;;4953824;28;20058;-70
2021/12/17 01:18:15;;;;;;;27.77;19.63;;;;;;;;;;4958947;28;20066;-69
2021/12/17 01:21:04;;;;;;;34.00;21.10;;;;;;;;;;4951455;28;20464;-71
2021/12/17 01:24:03;;;;;;;33.78;20.33;;;;;;;;;;4948116;28;20055;-70
2021/12/17 01:42:42;;;;;;;33.25;21.75;;;;;;;;;;4946645;28;20054;-69
2021/12/17 01:45:09;;;;;;;35.17;21.05;;;;;;;;;;4952405;28;20060;-68
2021/12/17 01:47:36;;;;;;;34.78;21.38;;;;;;;;;;4951913;28;20048;-70
2021/12/17 02:00:54;;;;;;;35.00;22.45;;;;;;;;;;4951467;28;20086;-71
2021/12/17 02:03:21;;;;;;;36.90;24.52;;;;;;;;;;4951992;28;20056;-70
2021/12/17 02:05:47;;;;;;;36.72;23.63;;;;;;;;;;4952153;28;20146;-70
2021/12/17 02:08:14;;;;;;;37.35;24.80;;;;;;;;;;4952004;28;20510;-72
2021/12/17 02:11:33;;;;;;;34.38;23.63;;;;;;;;;;4951964;28;20147;-71
2021/12/17 02:30:22;;;;;;;45.72;28.27;;;;;;;;;;4951323;28;20047;-70
2021/12/17 02:32:49;;;;;;;41.85;26.13;;;;;;;;;;4952716;28;20056;-70
2021/12/17 02:35:28;;;;;;;43.15;27.20;;;;;;;;;;4951618;28;20058;-71
2021/12/17 02:37:55;;;;;;;48.85;28.30;;;;;;;;;;4943700;28;20052;-68
2021/12/17 02:45:36;;;;;;;48.58;29.20;;;;;;;;;;4951898;28;20060;-70
2021/12/17 02:48:06;;;;;;;55.20;32.45;;;;;;;;;;4950694;28;20506;-70
2021/12/17 02:50:34;;;;;;;61.65;33.95;;;;;;;;;;4950541;28;20143;-70
2021/12/17 02:53:02;;;;;;;55.53;32.22;;;;;;;;;;4949812;28;20067;-70
2021/12/17 02:55:30;;;;;;;55.45;32.90;;;;;;;;;;4950491;28;20147;-70
2021/12/17 02:57:56;;;;;;;56.53;30.17;;;;;;;;;;4951348;28;20143;-71
2021/12/17 03:00:23;;;;;;;61.85;32.03;;;;;;;;;;4950011;28;20067;-69
2021/12/17 03:02:49;;;;;;;51.95;29.60;;;;;;;;;;4950572;28;20051;-72
2021/12/17 03:05:16;;;;;;;46.63;26.63;;;;;;;;;;4948676;28;20047;-70
2021/12/17 03:07:45;;;;;;;61.05;29.05;;;;;;;;;;4952024;28;20496;-70
2021/12/17 03:10:13;;;;;;;54.15;28.42;;;;;;;;;;4950993;28;20062;-71
2021/12/17 03:12:57;;;;;;;59.50;28.15;;;;;;;;;;4950820;28;20052;-70
2021/12/17 03:15:35;;;;;;;51.63;26.35;;;;;;;;;;4951189;28;20055;-72
2021/12/17 03:25:57;;;;;;;36.20;22.15;;;;;;;;;;4955308;28;20059;-70
2021/12/17 03:28:25;;;;;;;42.20;22.02;;;;;;;;;;4954350;28;20056;-71
2021/12/17 03:30:51;;;;;;;39.05;21.13;;;;;;;;;;4952205;28;20095;-73
2021/12/17 03:33:18;;;;;;;39.47;20.13;;;;;;;;;;4956213;28;20048;-70
2021/12/17 03:35:44;;;;;;;34.78;18.95;;;;;;;;;;4953334;28;20059;-72
2021/12/17 03:38:11;;;;;;;39.70;19.83;;;;;;;;;;4958050;28;20050;-71
2021/12/17 03:40:40;;;;;;;38.00;18.88;;;;;;;;;;4953689;28;20486;-72
2021/12/17 03:43:12;;;;;;;36.22;18.95;;;;;;;;;;4946722;28;20499;-69
2021/12/17 03:45:42;;;;;;;34.75;19.73;;;;;;;;;;4956024;28;20135;-70
2021/12/17 03:48:08;;;;;;;37.50;19.88;;;;;;;;;;4958003;28;20167;-70
2021/12/17 03:50:36;;;;;;;43.30;21.23;;;;;;;;;;4955452;28;20839;-69
2021/12/17 03:53:04;;;;;;;38.53;18.70;;;;;;;;;;4951989;28;20079;-70
2021/12/17 03:55:30;;;;;;;36.90;18.38;;;;;;;;;;4939153;28;20569;-70
2021/12/17 03:58:00;;;;;;;31.75;16.08;;;;;;;;;;4955593;28;20054;-70
2021/12/17 04:00:27;;;;;;;32.15;16.23;;;;;;;;;;4953953;28;20062;-71
2021/12/17 04:02:53;;;;;;;30.70;14.77;;;;;;;;;;4956992;28;20138;-70
2021/12/17 04:05:20;;;;;;;28.52;14.85;;;;;;;;;;4950720;28;20087;-70
2021/12/17 04:07:46;;;;;;;27.77;14.00;;;;;;;;;;4953251;28;20819;-70
2021/12/17 04:10:13;;;;;;;34.67;16.08;;;;;;;;;;4953870;28;20087;-71
2021/12/17 04:15:36;;;;;;;32.17;14.38;;;;;;;;;;4962104;28;20055;-71
2021/12/17 04:18:07;;;;;;;24.83;13.27;;;;;;;;;;4963187;28;20559;-70
2021/12/17 04:20:34;;;;;;;26.80;12.77;;;;;;;;;;4948409;28;20060;-72
2021/12/17 04:23:01;;;;;;;25.92;13.70;;;;;;;;;;4945349;28;20518;-72
2021/12/17 04:25:30;;;;;;;25.55;12.52;;;;;;;;;;4953375;28;20048;-69
2021/12/17 04:27:57;;;;;;;23.40;13.07;;;;;;;;;;4952725;28;20051;-70
2021/12/17 04:30:24;;;;;;;25.85;12.40;;;;;;;;;;4958332;28;20080;-70
2021/12/17 04:32:50;;;;;;;24.58;11.60;;;;;;;;;;4953459;28;20044;-71
2021/12/17 04:35:17;;;;;;;21.38;11.07;;;;;;;;;;4954390;28;20056;-71
2021/12/17 04:37:43;;;;;;;21.52;11.00;;;;;;;;;;4947000;28;20052;-70
2021/12/17 04:40:10;;;;;;;17.67;10.30;;;;;;;;;;4955230;28;20056;-71
2021/12/17 04:45:11;;;;;;;16.17;8.95;;;;;;;;;;4956643;28;20055;-70
2021/12/17 04:58:37;;;;;;;16.25;8.75;;;;;;;;;;4961868;28;20062;-71
2021/12/17 05:01:10;;;;;;;13.40;7.75;;;;;;;;;;4955197;28;20518;-71
2021/12/17 05:03:36;;;;;;;15.27;8.15;;;;;;;;;;4958621;28;20058;-70
2021/12/17 05:06:02;;;;;;;12.10;7.35;;;;;;;;;;4966388;28;20117;-70
2021/12/17 05:08:29;;;;;;;15.32;7.82;;;;;;;;;;4945768;28;20055;-70
2021/12/17 05:19:19;;;;;;;12.48;6.68;;;;;;;;;;4952572;28;20060;-71
2021/12/17 05:21:46;;;;;;;12.35;6.25;;;;;;;;;;4952441;28;20059;-70
2021/12/17 05:24:12;;;;;;;9.48;6.05;;;;;;;;;;4953753;28;20067;-70
2021/12/17 05:26:38;;;;;;;10.57;5.55;;;;;;;;;;4961093;28;20066;-70
2021/12/17 05:29:05;;;;;;;13.45;5.50;;;;;;;;;;4944202;28;20056;-70
2021/12/17 05:31:31;;;;;;;10.52;5.80;;;;;;;;;;4961911;28;20055;-70
2021/12/17 05:33:58;;;;;;;11.80;6.13;;;;;;;;;;4965562;28;20190;-71
2021/12/17 05:36:25;;;;;;;9.95;5.88;;;;;;;;;;4958068;28;20052;-71
2021/12/17 05:38:51;;;;;;;13.20;5.60;;;;;;;;;;5001461;28;20055;-71
2021/12/17 05:41:18;;;;;;;10.05;5.18;;;;;;;;;;4953086;28;20052;-72
2021/12/17 05:43:53;;;;;;;11.52;6.18;;;;;;;;;;4952816;28;20531;-70
2021/12/17 05:46:24;;;;;;;;;;;;;;;;;;4951513;28;20048;-69
2021/12/17 05:48:50;;;;;;;11.20;5.45;;;;;;;;;;4949803;28;43874;-71
2021/12/17 05:51:17;;;;;;;14.82;6.13;;;;;;;;;;4951306;28;20059;-70
2021/12/17 05:53:43;;;;;;;13.45;7.13;;;;;;;;;;4952273;28;20060;-69
2021/12/17 05:56:10;;;;;;;13.25;6.90;;;;;;;;;;4951997;28;20056;-70
2021/12/17 05:58:36;;;;;;;16.27;6.88;;;;;;;;;;4951712;28;20151;-71
2021/12/17 06:01:02;;;;;;;15.20;7.38;;;;;;;;;;4951533;28;20138;-71
2021/12/17 06:03:29;;;;;;;17.05;7.78;;;;;;;;;;4951667;28;20060;-70
2021/12/17 06:05:55;;;;;;;15.10;7.70;;;;;;;;;;4951481;28;20083;-70
2021/12/17 06:08:21;;;;;;;13.68;7.30;;;;;;;;;;4951719;28;20060;-71
2021/12/17 06:10:48;;;;;;;16.50;8.10;;;;;;;;;;4950892;28;20059;-71
2021/12/17 06:13:14;;;;;;;17.00;7.47;;;;;;;;;;4950694;28;20586;-70
2021/12/17 06:15:40;;;;;;;20.40;8.70;;;;;;;;;;4952226;28;20198;-70
2021/12/17 06:18:06;;;;;;;15.98;8.63;;;;;;;;;;4946994;28;20056;-71
2021/12/17 06:20:33;;;;;;;15.32;7.85;;;;;;;;;;4950650;28;20052;-72
2021/12/17 06:22:59;;;;;;;16.58;7.05;;;;;;;;;;4951648;28;20609;-72
2021/12/17 06:25:26;;;;;;;15.82;7.15;;;;;;;;;;4951750;28;20079;-72
2021/12/17 06:27:54;;;;;;;19.67;8.00;;;;;;;;;;4951037;28;20058;-71
2021/12/17 06:30:20;;;;;;;20.05;8.10;;;;;;;;;;4939099;28;20056;-71
2021/12/17 06:32:46;;;;;;;18.17;8.70;;;;;;;;;;4951449;28;20052;-71
2021/12/17 06:35:13;;;;;;;18.23;8.10;;;;;;;;;;4951089;28;20059;-69
2021/12/17 06:37:40;;;;;;;17.85;8.18;;;;;;;;;;4951699;28;20062;-70
2021/12/17 06:40:09;;;;;;;20.80;8.40;;;;;;;;;;4951183;28;20094;-72
2021/12/17 06:42:35;;;;;;;17.42;8.40;;;;;;;;;;4947322;28;20047;-71
2021/12/17 06:45:06;;;;;;;18.63;8.80;;;;;;;;;;4951584;28;20060;-69
2021/12/17 06:47:35;;;;;;;19.60;8.45;;;;;;;;;;4951481;28;20052;-70
2021/12/17 07:06:03;;;;;;;14.38;7.38;;;;;;;;;;4938365;28;20052;-69
2021/12/17 07:22:24;;;;;;;19.85;8.27;;;;;;;;;;4930631;28;20167;-68
2021/12/17 07:38:39;;;;;;;22.08;8.05;;;;;;;;;;4919432;28;20143;-71
2021/12/17 07:41:06;;;;;;;20.17;8.93;;;;;;;;;;4953139;28;20060;-70
2021/12/17 07:43:37;;;;;;;23.35;8.25;;;;;;;;;;4949968;28;20135;-69
2021/12/17 07:46:11;;;;;;;17.65;8.13;;;;;;;;;;4949563;28;20087;-70
2021/12/17 07:48:37;;;;;;;21.45;8.63;;;;;;;;;;4930085;28;20067;-70
2021/12/17 07:51:05;;;;;;;18.33;7.65;;;;;;;;;;4929929;28;20538;-70
2021/12/17 07:53:36;;;;;;;19.40;7.50;;;;;;;;;;4929978;28;20182;-70
2021/12/17 07:56:04;;;;;;;17.77;8.45;;;;;;;;;;4955735;28;20064;-71
2021/12/17 07:58:31;;;;;;;24.75;9.10;;;;;;;;;;4954790;28;20052;-71
2021/12/17 08:00:57;;;;;;;22.60;9.30;;;;;;;;;;4950440;28;20063;-69
2021/12/17 08:03:24;;;;;;;18.10;8.43;;;;;;;;;;4950800;28;20048;-68
2021/12/17 08:05:51;;;;;;;18.92;7.80;;;;;;;;;;4950922;28;20548;-69
2021/12/17 08:08:18;;;;;;;14.85;8.13;;;;;;;;;;4929745;28;20135;-70
2021/12/17 08:10:47;;;;;;;20.60;8.00;;;;;;;;;;4933730;28;20056;-70
2021/12/17 08:13:26;;;;;;;18.85;7.55;;;;;;;;;;4951352;28;20219;-70
2021/12/17 08:18:49;;;;;;;19.50;7.15;;;;;;;;;;4951935;28;20066;-69
2021/12/17 08:24:45;;;;;;;15.23;7.40;;;;;;;;;;4952662;28;20530;-71
2021/12/17 08:27:23;;;;;;;15.00;7.03;;;;;;;;;;4953232;28;20052;-70
2021/12/17 08:29:55;;;;;;;16.63;7.22;;;;;;;;;;4954932;28;20060;-69
2021/12/17 08:32:21;;;;;;;18.10;7.85;;;;;;;;;;4953898;28;20059;-70
2021/12/17 08:34:48;;;;;;;20.58;8.13;;;;;;;;;;4952403;28;20052;-70
2021/12/17 08:37:14;;;;;;;20.05;8.27;;;;;;;;;;4951821;28;20066;-69
2021/12/17 08:39:40;;;;;;;21.65;8.05;;;;;;;;;;4951879;28;20051;-68
2021/12/17 08:42:07;;;;;;;17.75;7.75;;;;;;;;;;4934656;28;20563;-68
2021/12/17 08:44:33;;;;;;;20.92;8.27;;;;;;;;;;4966484;28;20059;-70
2021/12/17 08:47:00;;;;;;;24.23;8.60;;;;;;;;;;4951686;28;20055;-69
2021/12/17 08:49:26;;;;;;;19.30;8.38;;;;;;;;;;4968206;28;20062;-69
2021/12/17 08:51:54;;;;;;;14.70;7.88;;;;;;;;;;4970273;28;20086;-69
2021/12/17 08:54:20;;;;;;;19.75;9.07;;;;;;;;;;4953364;28;20516;-69
2021/12/17 08:56:47;;;;;;;19.00;8.07;;;;;;;;;;4951530;28;20066;-69
2021/12/17 08:59:16;;;;;;;22.98;9.07;;;;;;;;;;4951136;28;20048;-70
2021/12/17 09:01:44;;;;;;;20.27;8.95;;;;;;;;;;4951375;28;20062;-69
2021/12/17 09:04:10;;;;;;;22.70;9.52;;;;;;;;;;4955231;28;20056;-71
2021/12/17 09:06:37;;;;;;;20.35;9.07;;;;;;;;;;4950390;28;20056;-69
2021/12/17 09:09:03;;;;;;;29.15;10.25;;;;;;;;;;4951128;28;20062;-69
2021/12/17 09:11:30;;;;;;;25.58;9.85;;;;;;;;;;4952274;28;20492;-70
2021/12/17 09:13:58;;;;;;;22.10;10.43;;;;;;;;;;4949896;28;20060;-70
2021/12/17 09:16:24;;;;;;;24.58;10.13;;;;;;;;;;4952203;28;20497;-69
2021/12/17 09:18:51;;;;;;;24.70;9.25;;;;;;;;;;4953478;28;20067;-71
2021/12/17 09:21:19;;;;;;;20.63;9.40;;;;;;;;;;4951175;28;20146;-70
2021/12/17 09:23:45;;;;;;;24.27;10.82;;;;;;;;;;4950952;28;20147;-69
2021/12/17 09:26:13;;;;;;;24.67;9.43;;;;;;;;;;4951921;28;20056;-70
2021/12/17 09:28:40;;;;;;;23.33;10.32;;;;;;;;;;4950583;28;20055;-69
2021/12/17 09:31:11;;;;;;;24.55;10.32;;;;;;;;;;4951131;28;20475;-70
2021/12/17 09:33:38;;;;;;;21.80;10.40;;;;;;;;;;4952172;28;20513;-70
2021/12/17 09:36:05;;;;;;;22.92;10.32;;;;;;;;;;4969343;28;20097;-69
2021/12/17 09:38:31;;;;;;;24.80;11.02;;;;;;;;;;4946588;28;20055;-71
2021/12/17 09:40:58;;;;;;;19.80;9.27;;;;;;;;;;4947837;28;20060;-69
2021/12/17 09:43:24;;;;;;;26.58;10.50;;;;;;;;;;4949272;28;20431;-70
2021/12/17 09:45:50;;;;;;;23.23;10.25;;;;;;;;;;4955259;28;20086;-70
2021/12/17 09:48:18;;;;;;;22.27;10.02;;;;;;;;;;4950764;28;20519;-69
2021/12/17 09:50:45;;;;;;;20.73;10.07;;;;;;;;;;4950703;28;20141;-70
2021/12/17 09:53:11;;;;;;;20.15;8.98;;;;;;;;;;4950517;28;20064;-69
2021/12/17 09:55:38;;;;;;;18.25;9.00;;;;;;;;;;4960517;28;20064;-68
2021/12/17 09:58:04;;;;;;;22.23;9.55;;;;;;;;;;4959254;28;20047;-69
2021/12/17 10:00:30;;;;;;;17.75;8.48;;;;;;;;;;4950825;28;20083;-69
2021/12/17 10:02:58;;;;;;;13.68;7.15;;;;;;;;;;4952235;28;20114;-69
2021/12/17 10:05:26;;;;;;;17.15;8.55;;;;;;;;;;4950835;28;20052;-69
2021/12/17 10:08:00;;;;;;;17.35;8.52;;;;;;;;;;4951052;28;20142;-68
2021/12/17 10:10:33;;;;;;;16.15;7.75;;;;;;;;;;4961586;28;20054;-69
2021/12/17 10:13:08;;;;;;;13.38;7.38;;;;;;;;;;4932397;28;20178;-69
2021/12/17 10:15:35;;;;;;;15.40;7.50;;;;;;;;;;4941678;28;20055;-70
2021/12/17 10:18:02;;;;;;;13.50;7.35;;;;;;;;;;4952346;28;20055;-69
2021/12/17 10:20:30;;;;;;;17.30;8.15;;;;;;;;;;4950722;28;20055;-70
2021/12/17 10:22:58;;;;;;;13.23;6.93;;;;;;;;;;4962895;28;20487;-69
2021/12/17 10:25:25;;;;;;;14.23;7.70;;;;;;;;;;4954132;28;20055;-68
2021/12/17 10:27:55;;;;;;;12.95;6.38;;;;;;;;;;4953640;28;20052;-69
2021/12/17 10:30:22;;;;;;;12.05;6.25;;;;;;;;;;4950350;28;20051;-70
2021/12/17 10:32:49;;;;;;;13.90;6.35;;;;;;;;;;4956726;28;20062;-68
2021/12/17 10:35:19;;;;;;;13.32;5.88;;;;;;;;;;4949581;28;20083;-70
2021/12/17 10:38:05;;;;;;;11.27;6.32;;;;;;;;;;4952083;28;20048;-70
2021/12/17 10:40:36;;;;;;;13.60;6.60;;;;;;;;;;4929758;28;20078;-70
2021/12/17 10:43:16;;;;;;;10.52;6.05;;;;;;;;;;4932279;28;20095;-71
2021/12/17 10:45:47;;;;;;;6.40;3.90;;;;;;;;;;4949791;28;20083;-69
2021/12/17 10:51:16;;;;;;;6.82;3.70;;;;;;;;;;4950257;28;20063;-71
2021/12/17 10:53:56;;;;;;;5.65;3.60;;;;;;;;;;4951259;28;20052;-70
2021/12/17 10:56:27;;;;;;;6.13;4.15;;;;;;;;;;4949933;28;20055;-71
2021/12/17 10:59:04;;;;;;;7.45;4.10;;;;;;;;;;4949176;28;20142;-71
2021/12/17 11:01:36;;;;;;;7.57;3.65;;;;;;;;;;4948871;28;20055;-70
2021/12/17 11:04:03;;;;;;;9.10;4.30;;;;;;;;;;4956972;28;20150;-72
2021/12/17 11:06:53;;;;;;;5.90;3.25;;;;;;;;;;4950099;28;20146;-69
2021/12/17 11:09:40;;;;;;;5.95;3.45;;;;;;;;;;4948563;28;20051;-71
2021/12/17 11:12:17;;;;;;;4.22;3.05;;;;;;;;;;4951329;28;20055;-72
2021/12/17 11:14:44;;;;;;;6.38;3.60;;;;;;;;;;4949617;28;20350;-71
2021/12/17 11:17:12;;;;;;;5.97;3.67;;;;;;;;;;4949692;28;20459;-71
2021/12/17 11:20:01;;;;;;;4.35;3.17;;;;;;;;;;4949390;28;20056;-72
2021/12/17 11:22:29;;;;;;;6.63;3.00;;;;;;;;;;4949830;28;20082;-70
2021/12/17 11:24:57;;;;;;;4.65;3.20;;;;;;;;;;4951008;28;20066;-72
2021/12/17 11:27:23;;;;;;;7.18;3.50;;;;;;;;;;4949799;28;20488;-72
2021/12/17 11:29:50;;;;;;;5.93;3.40;;;;;;;;;;4951413;28;20060;-70
2021/12/17 11:32:18;;;;;;;5.80;3.15;;;;;;;;;;4964301;28;20099;-71
2021/12/17 11:34:45;;;;;;;4.55;2.90;;;;;;;;;;4954478;28;20496;-71
2021/12/17 11:37:12;;;;;;;4.95;2.72;;;;;;;;;;4951427;28;20082;-71
2021/12/17 11:39:42;;;;;;;4.63;2.70;;;;;;;;;;4953814;28;20051;-72
2021/12/17 11:42:29;;;;;;;4.72;2.95;;;;;;;;;;4951213;28;20496;-73
2021/12/17 11:47:42;;;;;;;8.82;4.05;;;;;;;;;;4953277;28;20048;-71
2021/12/17 11:50:10;;;;;;;9.82;4.53;;;;;;;;;;4952622;28;20557;-71
2021/12/17 11:52:47;;;;;;;8.98;4.53;;;;;;;;;;4952369;28;20118;-71
2021/12/17 11:55:24;;;;;;;8.82;4.70;;;;;;;;;;4952676;28;20163;-73
2021/12/17 11:57:58;;;;;;;8.20;4.68;;;;;;;;;;4963869;28;20055;-73
2021/12/17 12:00:46;;;;;;;6.85;5.20;;;;;;;;;;4971926;28;20090;-73
2021/12/17 12:03:19;;;;;;;7.05;4.20;;;;;;;;;;4971451;28;20055;-73
2021/12/17 12:05:47;;;;;;;10.18;4.47;;;;;;;;;;4959017;28;20114;-73
2021/12/17 12:08:24;;;;;;;7.25;4.65;;;;;;;;;;4952417;28;20052;-72
2021/12/17 12:11:09;;;;;;;6.07;3.80;;;;;;;;;;4956874;28;20056;-73
2021/12/17 12:13:42;;;;;;;8.80;4.82;;;;;;;;;;4963673;28;20175;-70
2021/12/17 12:16:10;;;;;;;6.93;4.15;;;;;;;;;;4971492;28;20051;-74
2021/12/17 12:18:40;;;;;;;6.43;4.03;;;;;;;;;;4958774;28;20056;-73
2021/12/17 12:21:08;;;;;;;5.68;3.88;;;;;;;;;;4951727;28;20135;-74
2021/12/17 12:23:39;;;;;;;3.95;2.95;;;;;;;;;;4954305;28;20056;-71
2021/12/17 12:26:08;;;;;;;5.13;3.50;;;;;;;;;;4953114;28;20938;-71
2021/12/17 12:28:49;;;;;;;7.22;3.80;;;;;;;;;;4967984;28;20180;-71
2021/12/17 12:31:38;;;;;;;6.18;3.40;;;;;;;;;;4970396;28;20089;-70
2021/12/17 12:34:08;;;;;;;6.47;3.27;;;;;;;;;;4951971;28;20056;-71
2021/12/17 12:36:54;;;;;;;4.82;3.58;;;;;;;;;;4952771;28;20060;-69
2021/12/17 12:39:35;;;;;;;4.32;3.40;;;;;;;;;;4953339;28;20082;-72
2021/12/17 12:42:20;;;;;;;3.50;2.90;;;;;;;;;;4934535;28;20060;-72
2021/12/17 12:44:46;;;;;;;3.70;3.17;;;;;;;;;;4948679;28;20054;-70
2021/12/17 12:47:25;;;;;;;5.25;3.22;;;;;;;;;;4951235;28;20051;-70
2021/12/17 12:49:56;;;;;;;4.65;3.10;;;;;;;;;;4951033;28;20051;-71
2021/12/17 12:52:27;;;;;;;3.75;2.92;;;;;;;;;;4951187;28;20138;-70
2021/12/17 12:54:55;;;;;;;4.13;3.28;;;;;;;;;;4951812;28;20525;-71
2021/12/17 12:57:31;;;;;;;3.95;2.95;;;;;;;;;;4920330;28;20056;-72
2021/12/17 13:00:05;;;;;;;5.90;3.40;;;;;;;;;;4951483;28;20907;-71
2021/12/17 13:02:33;;;;;;;5.10;2.97;;;;;;;;;;4951416;28;20066;-70
2021/12/17 13:05:00;;;;;;;4.13;2.90;;;;;;;;;;4950838;28;20407;-70
2021/12/17 13:07:30;;;;;;;6.13;3.08;;;;;;;;;;4919435;28;20063;-71
2021/12/17 13:09:56;;;;;;;4.97;3.60;;;;;;;;;;4940783;28;20051;-71
2021/12/17 13:12:26;;;;;;;3.83;2.88;;;;;;;;;;4951658;28;20529;-72
2021/12/17 13:14:56;;;;;;;4.47;3.08;;;;;;;;;;4949997;28;20052;-71
2021/12/17 13:17:52;;;;;;;5.18;3.15;;;;;;;;;;4934175;28;20463;-71
2021/12/17 13:20:53;;;;;;;3.50;3.20;;;;;;;;;;4951231;28;21036;-71
2021/12/17 13:23:18;;;;;;;5.70;3.80;;;;;;;;;;4945057;28;20058;-73
2021/12/17 13:25:45;;;;;;;5.40;3.90;;;;;;;;;;4951782;28;20964;-71
2021/12/17 13:28:12;;;;;;;4.63;3.35;;;;;;;;;;4951568;28;20052;-71
2021/12/17 13:30:40;;;;;;;3.83;3.42;;;;;;;;;;4953909;28;20067;-71
2021/12/17 13:33:06;;;;;;;5.28;3.85;;;;;;;;;;4970623;28;20507;-70
2021/12/17 13:35:34;;;;;;;3.78;3.30;;;;;;;;;;4962042;28;20055;-70
2021/12/17 13:38:01;;;;;;;4.60;3.45;;;;;;;;;;4952152;28;20056;-72
2021/12/17 13:40:28;;;;;;;5.72;3.45;;;;;;;;;;4952395;28;20179;-71
2021/12/17 13:42:55;;;;;;;9.20;3.75;;;;;;;;;;4952816;28;20060;-69
2021/12/17 13:45:22;;;;;;;3.92;3.00;;;;;;;;;;4960740;28;20052;-69
2021/12/17 13:47:54;;;;;;;4.93;3.47;;;;;;;;;;4951249;28;20063;-67
2021/12/17 13:50:22;;;;;;;4.40;3.55;;;;;;;;;;4942457;28;20059;-69
2021/12/17 13:52:48;;;;;;;5.10;3.60;;;;;;;;;;4970013;28;20071;-68
2021/12/17 13:55:17;;;;;;;4.43;3.50;;;;;;;;;;4966276;28;20064;-70
2021/12/17 13:57:43;;;;;;;5.20;3.65;;;;;;;;;;4952088;28;20126;-68
2021/12/17 14:00:10;;;;;;;4.63;3.80;;;;;;;;;;4958172;28;20061;-69
2021/12/17 14:02:37;;;;;;;5.03;4.07;;;;;;;;;;4954318;28;20066;-71
2021/12/17 14:05:08;;;;;;;5.63;4.10;;;;;;;;;;4951443;28;20105;-70
2021/12/17 14:07:35;;;;;;;4.63;3.65;;;;;;;;;;4964602;28;20155;-71
2021/12/17 14:10:09;;;;;;;5.38;4.22;;;;;;;;;;4950449;28;20060;-69
2021/12/17 14:12:39;;;;;;;6.28;4.00;;;;;;;;;;4957691;28;20499;-71
2021/12/17 14:15:28;;;;;;;7.20;4.30;;;;;;;;;;4941219;28;20056;-71
2021/12/17 14:17:55;;;;;;;6.10;4.85;;;;;;;;;;4950842;28;20060;-69
2021/12/17 14:20:23;;;;;;;5.25;4.75;;;;;;;;;;4950456;28;20060;-72
2021/12/17 14:22:51;;;;;;;9.60;5.07;;;;;;;;;;4950679;28;20187;-72
2021/12/17 14:25:30;;;;;;;8.35;5.15;;;;;;;;;;4932489;28;20079;-71
2021/12/17 14:27:58;;;;;;;5.97;5.05;;;;;;;;;;4937548;28;20066;-70
2021/12/17 14:30:28;;;;;;;7.43;5.10;;;;;;;;;;4954974;28;20060;-70
2021/12/17 14:32:56;;;;;;;7.85;5.35;;;;;;;;;;4950851;28;20052;-70
2021/12/17 14:35:41;;;;;;;7.18;5.20;;;;;;;;;;4951959;28;20059;-69
2021/12/17 14:38:07;;;;;;;8.43;5.72;;;;;;;;;;4951093;28;20511;-72
2021/12/17 14:40:57;;;;;;;9.23;5.95;;;;;;;;;;4954319;28;20051;-70
2021/12/17 14:43:22;;;;;;;6.38;5.38;;;;;;;;;;4949690;28;20121;-70
2021/12/17 14:46:03;;;;;;;8.85;6.03;;;;;;;;;;4949760;28;20109;-72
2021/12/17 14:48:48;;;;;;;10.50;6.05;;;;;;;;;;4950076;28;20048;-70
2021/12/17 15:04:45;;;;;;;9.80;7.03;;;;;;;;;;4951080;28;20067;-71
2021/12/17 15:07:11;;;;;;;8.70;5.90;;;;;;;;;;4949886;28;20047;-70
2021/12/17 15:09:42;;;;;;;10.30;7.00;;;;;;;;;;4968867;28;20056;-70
2021/12/17 15:15:00;;;;;;;10.13;6.22;;;;;;;;;;4947664;28;20083;-71
2021/12/17 15:17:27;;;;;;;11.02;6.85;;;;;;;;;;4946070;28;20540;-69
2021/12/17 15:20:14;;;;;;;11.20;6.88;;;;;;;;;;4933220;29;20056;-71
2021/12/17 15:22:41;;;;;;;12.10;6.50;;;;;;;;;;4935677;28;20508;-71
2021/12/17 15:25:08;;;;;;;12.65;6.97;;;;;;;;;;4934660;28;20062;-71
2021/12/17 15:27:37;;;;;;;14.55;7.97;;;;;;;;;;4940191;28;20058;-72
2021/12/17 15:30:06;;;;;;;14.00;7.90;;;;;;;;;;4952587;28;20090;-71
2021/12/17 15:32:33;;;;;;;14.60;8.43;;;;;;;;;;4951858;28;20060;-73
2021/12/17 15:34:59;;;;;;;14.82;8.02;;;;;;;;;;4949673;28;20062;-73
2021/12/17 15:37:26;;;;;;;14.40;8.13;;;;;;;;;;4947020;28;20054;-71
2021/12/17 15:39:52;;;;;;;13.82;7.78;;;;;;;;;;4952938;28;20646;-72
2021/12/17 15:42:19;;;;;;;14.43;7.43;;;;;;;;;;4954230;28;20048;-72
2021/12/17 15:44:45;;;;;;;16.73;8.23;;;;;;;;;;4953754;28;20063;-71
2021/12/17 15:47:11;;;;;;;16.35;8.00;;;;;;;;;;4954678;28;20110;-73
2021/12/17 15:49:38;;;;;;;14.52;8.35;;;;;;;;;;4952459;28;20056;-72
2021/12/17 15:52:05;;;;;;;16.85;8.85;;;;;;;;;;4952240;28;20060;-72
2021/12/17 15:54:32;;;;;;;16.92;11.00;;;;;;;;;;4940088;28;20432;-71
2021/12/17 15:56:58;;;;;;;17.80;11.95;;;;;;;;;;4932936;28;20140;-70
2021/12/17 15:59:24;;;;;;;16.08;9.85;;;;;;;;;;4933521;28;20060;-71
2021/12/17 16:01:51;;;;;;;19.95;9.50;;;;;;;;;;5034548;28;20056;-70
2021/12/17 16:04:17;;;;;;;16.80;9.77;;;;;;;;;;5044495;28;20063;-71
2021/12/17 16:06:43;;;;;;;20.83;10.70;;;;;;;;;;5040995;28;20058;-72
2021/12/17 16:09:30;;;;;;;17.45;10.13;;;;;;;;;;5033272;28;20140;-70
2021/12/17 16:12:08;;;;;;;18.17;9.73;;;;;;;;;;5031481;28;20069;-70
2021/12/17 16:22:49;;;;;;;19.85;10.68;;;;;;;;;;5030982;28;20204;-72
2021/12/17 16:25:15;;;;;;;19.75;11.65;;;;;;;;;;5033215;28;20156;-70
2021/12/17 16:27:42;;;;;;;18.23;10.95;;;;;;;;;;5033280;28;20570;-71
2021/12/17 16:30:08;;;;;;;17.00;10.45;;;;;;;;;;5033800;28;20042;-71
2021/12/17 16:32:35;;;;;;;17.95;9.88;;;;;;;;;;5031818;28;20525;-70
2021/12/17 16:35:02;;;;;;;17.60;9.85;;;;;;;;;;5033280;28;20092;-71
2021/12/17 16:37:29;;;;;;;17.30;10.13;;;;;;;;;;5034746;28;20058;-72
2021/12/17 16:39:55;;;;;;;15.75;9.20;;;;;;;;;;5035348;28;20060;-72
2021/12/17 16:42:22;;;;;;;15.65;9.00;;;;;;;;;;5035222;28;20057;-73
2021/12/17 16:47:33;;;;;;;16.67;9.80;;;;;;;;;;5034729;28;20363;-73
2021/12/17 16:49:59;;;;;;;14.82;9.52;;;;;;;;;;5034276;28;20050;-71
2021/12/17 16:52:27;;;;;;;16.20;9.70;;;;;;;;;;5027635;28;20060;-72
2021/12/17 16:54:54;;;;;;;14.57;9.48;;;;;;;;;;5048807;28;20068;-72
2021/12/17 16:57:20;;;;;;;15.48;9.32;;;;;;;;;;5054533;28;20105;-73
2021/12/17 16:59:46;;;;;;;16.48;10.02;;;;;;;;;;5048543;28;20524;-70
2021/12/17 17:02:13;;;;;;;15.77;10.10;;;;;;;;;;4950950;28;20506;-71
2021/12/17 17:04:39;;;;;;;19.55;10.60;;;;;;;;;;4953500;28;20051;-71
2021/12/17 17:07:06;;;;;;;18.40;10.07;;;;;;;;;;4953220;28;20137;-71
2021/12/17 17:09:33;;;;;;;16.02;9.88;;;;;;;;;;4953337;28;20048;-69
2021/12/17 17:12:03;;;;;;;20.50;9.88;;;;;;;;;;4956157;28;20059;-70
2021/12/17 17:14:31;;;;;;;16.35;10.07;;;;;;;;;;4969875;28;20063;-71
2021/12/17 17:16:57;;;;;;;17.25;9.88;;;;;;;;;;4954307;28;20569;-72
2021/12/17 17:19:23;;;;;;;24.55;14.35;;;;;;;;;;4953592;28;20070;-72
2021/12/17 17:21:50;;;;;;;19.48;12.88;;;;;;;;;;4953942;28;20087;-74
2021/12/17 17:24:18;;;;;;;18.52;12.07;;;;;;;;;;4964145;28;20063;-72
2021/12/17 17:26:44;;;;;;;20.02;10.70;;;;;;;;;;4961739;28;20146;-73
2021/12/17 17:29:11;;;;;;;23.65;13.20;;;;;;;;;;4972082;28;20530;-71
2021/12/17 17:31:37;;;;;;;17.88;10.73;;;;;;;;;;4963565;28;20052;-72
2021/12/17 17:34:07;;;;;;;15.65;9.73;;;;;;;;;;4957852;28;20059;-72
2021/12/17 17:36:37;;;;;;;16.75;10.05;;;;;;;;;;4970929;28;20059;-70
2021/12/17 17:39:05;;;;;;;13.27;8.10;;;;;;;;;;4972293;28;20059;-72
2021/12/17 17:41:31;;;;;;;13.65;7.90;;;;;;;;;;4958036;28;20047;-72
2021/12/17 17:43:57;;;;;;;11.75;7.00;;;;;;;;;;4952633;28;20080;-71
2021/12/17 17:46:25;;;;;;;11.80;7.47;;;;;;;;;;4952876;28;20060;-71
2021/12/17 17:48:51;;;;;;;12.05;7.40;;;;;;;;;;4957227;28;20051;-70
2021/12/17 17:51:19;;;;;;;15.93;8.30;;;;;;;;;;4961620;28;20522;-71
2021/12/17 17:53:45;;;;;;;13.60;7.57;;;;;;;;;;4957823;28;20055;-69
2021/12/17 17:56:12;;;;;;;15.30;9.82;;;;;;;;;;4967203;28;20509;-69
2021/12/17 17:58:38;;;;;;;15.65;8.77;;;;;;;;;;4970401;28;20494;-71
2021/12/17 18:01:05;;;;;;;15.85;8.95;;;;;;;;;;4963249;28;20154;-70
2021/12/17 18:03:35;;;;;;;18.10;9.10;;;;;;;;;;4965306;28;20109;-69